Time;durP1;ratioP1;P1;durP2;ratioP2;P2;SDS_P1;SDS_P2;PMS_P1;PMS_P2;Temp;Humidity;BMP_temperature;BMP_pressure;BME280_temperature;BME280_humidity;BME280_pressure;Samples;Min_cycle;Max_cycle;Signal;HPM_P1;HPM_P2
2023/03/12 00:01:51;;;;;;;16.10;6.07;;;-2.60;99.90;;;;;;6125167;23;20017;-83
2023/03/12 00:04:18;;;;;;;12.37;6.27;;;-2.50;99.90;;;;;;6124443;23;20375;-83
2023/03/12 00:06:59;;;;;;;13.83;6.50;;;-2.50;99.90;;;;;;6124998;23;20022;-84
2023/03/12 00:09:25;;;;;;;16.03;6.20;;;-2.50;99.90;;;;;;6123722;23;20020;-83
2023/03/12 00:12:08;;;;;;;13.83;6.33;;;-0.60;99.90;;;;;;6125298;23;20100;-83
2023/03/12 00:14:37;;;;;;;15.47;6.50;;;-2.40;99.90;;;;;;6126403;23;20312;-83
2023/03/12 00:17:03;;;;;;;18.37;8.83;;;-2.50;99.90;;;;;;6124119;23;20103;-83
2023/03/12 00:19:44;;;;;;;21.83;9.67;;;-1.50;99.90;;;;;;6124497;23;20335;-83
2023/03/12 00:22:10;;;;;;;20.77;10.03;;;-2.50;99.90;;;;;;6125157;23;20048;-84
2023/03/12 00:24:55;;;;;;;18.50;9.23;;;-2.70;99.90;;;;;;6095313;23;20332;-83
2023/03/12 00:27:32;;;;;;;20.73;9.83;;;-2.50;99.90;;;;;;6125332;23;20018;-83
2023/03/12 00:29:58;;;;;;;18.33;8.90;;;-2.80;99.90;;;;;;6121977;23;20029;-84
2023/03/12 00:32:36;;;;;;;18.67;8.20;;;-2.70;99.90;;;;;;6138755;23;20017;-83
2023/03/12 00:35:03;;;;;;;18.73;8.47;;;-2.00;99.90;;;;;;6125274;23;20018;-83
2023/03/12 00:37:38;;;;;;;15.70;8.17;;;-2.40;99.90;;;;;;6130275;23;20018;-83
2023/03/12 00:40:07;;;;;;;17.43;8.27;;;-2.40;99.90;;;;;;6139468;23;20022;-83
2023/03/12 00:43:02;;;;;;;18.00;7.90;;;-2.50;99.90;;;;;;6129671;23;20021;-83
2023/03/12 00:45:31;;;;;;;19.90;8.20;;;-1.90;99.90;;;;;;6110196;23;20079;-83
2023/03/12 00:47:56;;;;;;;15.33;7.90;;;-2.80;99.90;;;;;;6129914;23;20009;-83
2023/03/12 00:50:28;;;;;;;16.70;7.70;;;-2.70;99.90;;;;;;6155720;23;20037;-83
2023/03/12 00:52:54;;;;;;;14.93;7.33;;;-1.90;99.90;;;;;;6129015;23;20037;-83
2023/03/12 00:55:34;;;;;;;14.13;7.03;;;-2.10;99.90;;;;;;6140535;23;20022;-83
2023/03/12 00:57:59;;;;;;;15.27;7.30;;;-2.90;99.90;;;;;;6155371;23;20057;-83
2023/03/12 01:00:25;;;;;;;16.67;6.60;;;-2.70;99.90;;;;;;6128170;23;20016;-83
2023/03/12 01:02:57;;;;;;;16.43;7.10;;;-1.40;99.90;;;;;;6128875;23;20083;-83
2023/03/12 01:05:23;;;;;;;14.97;7.23;;;-1.70;99.90;;;;;;6129344;23;20025;-83
2023/03/12 01:08:04;;;;;;;12.57;6.30;;;-2.50;99.90;;;;;;6154650;23;20021;-83
2023/03/12 01:21:39;;;;;;;13.97;6.43;;;-2.60;99.90;;;;;;6149072;23;20009;-82
2023/03/12 01:24:58;;;;;;;14.03;6.60;;;-2.60;99.90;;;;;;6099472;23;20077;-83
2023/03/12 01:27:24;;;;;;;16.23;6.90;;;-3.10;99.90;;;;;;6098423;23;20029;-84
2023/03/12 01:29:49;;;;;;;14.30;6.90;;;-1.20;99.90;;;;;;6099850;23;20342;-83
2023/03/12 01:32:40;;;;;;;14.80;7.13;;;-2.80;99.90;;;;;;6125661;23;20026;-82
2023/03/12 01:35:21;;;;;;;15.87;6.93;;;-2.10;99.90;;;;;;6112546;23;20025;-83
2023/03/12 01:37:51;;;;;;;16.40;6.97;;;-2.60;99.90;;;;;;6129053;23;20017;-83
2023/03/12 01:40:32;;;;;;;16.57;6.50;;;-2.80;99.90;;;;;;6155295;23;20350;-83
2023/03/12 01:46:55;;;;;;;12.53;6.60;;;-1.80;99.90;;;;;;6123814;23;20018;-83
2023/03/12 01:49:33;;;;;;;14.00;6.50;;;-2.50;99.90;;;;;;6128477;23;20021;-83
2023/03/12 01:52:34;;;;;;;13.07;6.10;;;-2.70;99.90;;;;;;6116107;23;20017;-83
2023/03/12 01:55:37;;;;;;;13.97;6.20;;;-2.60;99.90;;;;;;6109989;23;20076;-83
2023/03/12 01:58:21;;;;;;;12.93;6.30;;;-2.90;99.90;;;;;;6129302;23;20021;-83
2023/03/12 02:00:47;;;;;;;13.93;6.50;;;-2.50;99.90;;;;;;6128798;23;20104;-83
2023/03/12 02:03:32;;;;;;;12.63;6.40;;;-1.70;99.90;;;;;;6165422;23;20037;-83
2023/03/12 02:06:15;;;;;;;12.97;6.57;;;-2.00;99.90;;;;;;6165090;23;20045;-83
2023/03/12 02:09:01;;;;;;;14.77;6.90;;;-2.40;99.90;;;;;;6130248;23;20450;-83
2023/03/12 02:11:26;;;;;;;15.53;6.70;;;-2.20;99.90;;;;;;6141929;23;20020;-83
2023/03/12 02:14:02;;;;;;;13.93;6.17;;;-1.60;99.90;;;;;;6157297;23;20013;-83
2023/03/12 02:16:28;;;;;;;14.37;6.00;;;-1.40;99.90;;;;;;6128728;23;20018;-83
2023/03/12 02:18:56;;;;;;;12.70;6.70;;;-2.40;99.90;;;;;;6129009;23;20014;-83
2023/03/12 02:21:34;;;;;;;16.80;7.23;;;-1.00;99.90;;;;;;6129731;23;20021;-83
2023/03/12 02:24:29;;;;;;;14.87;6.77;;;-1.00;99.90;;;;;;6129812;23;20045;-83
2023/03/12 02:27:14;;;;;;;13.20;6.57;;;-0.50;99.90;;;;;;6130529;23;20014;-83
2023/03/12 02:29:42;;;;;;;13.53;5.70;;;-1.90;99.90;;;;;;6157158;23;20013;-83
2023/03/12 02:32:26;;;;;;;14.37;6.00;;;-0.50;99.90;;;;;;6156637;23;20021;-83
2023/03/12 02:34:52;;;;;;;14.00;6.50;;;-1.60;99.90;;;;;;6130625;23;20089;-83
2023/03/12 02:37:18;;;;;;;14.37;6.90;;;-1.90;99.90;;;;;;6155959;23;20064;-84
2023/03/12 02:46:07;;;;;;;13.33;6.47;;;-1.50;99.90;;;;;;6141140;23;20078;-82
2023/03/12 02:48:48;;;;;;;12.97;6.00;;;-1.70;99.90;;;;;;6156778;23;20052;-83
2023/03/12 02:51:26;;;;;;;13.70;6.70;;;-0.60;99.90;;;;;;6129560;23;20092;-83
2023/03/12 02:54:07;;;;;;;12.20;5.90;;;-0.70;99.90;;;;;;6157116;23;20019;-82
2023/03/12 02:56:33;;;;;;;12.57;6.57;;;-1.50;99.90;;;;;;6130319;23;20096;-83
2023/03/12 02:59:06;;;;;;;15.33;6.80;;;-1.50;99.90;;;;;;6155970;23;20017;-83
2023/03/12 03:01:55;;;;;;;13.32;6.85;;;-0.30;99.90;;;;;;6129758;23;20017;-83
2023/03/12 03:04:28;;;;;;;12.83;6.63;;;-1.30;99.90;;;;;;6155566;23;20096;-83
2023/03/12 03:07:06;;;;;;;15.80;7.90;;;-1.40;99.90;;;;;;6129172;23;20010;-83
2023/03/12 03:09:49;;;;;;;15.47;7.53;;;0.00;99.90;;;;;;6130149;23;20018;-83
2023/03/12 03:12:15;;;;;;;14.13;6.53;;;-1.40;99.90;;;;;;6129271;23;20044;-83
2023/03/12 03:14:56;;;;;;;13.23;6.67;;;-1.40;99.90;;;;;;6156330;23;20453;-83
2023/03/12 03:17:26;;;;;;;14.10;6.50;;;-1.00;99.90;;;;;;6156875;23;20013;-83
2023/03/12 03:19:51;;;;;;;14.33;6.80;;;-0.40;99.90;;;;;;6155647;23;20029;-83
2023/03/12 03:22:32;;;;;;;16.90;6.97;;;-1.20;99.90;;;;;;6156635;23;20017;-83
2023/03/12 03:25:01;;;;;;;13.60;6.23;;;-1.80;99.90;;;;;;6156640;23;20080;-83
2023/03/12 03:27:42;;;;;;;13.30;6.50;;;-1.20;99.90;;;;;;6128959;23;20021;-83
2023/03/12 03:30:08;;;;;;;16.87;6.87;;;-2.00;99.90;;;;;;6156508;23;20010;-83
2023/03/12 03:32:48;;;;;;;14.13;6.60;;;-0.90;99.90;;;;;;6129668;23;20322;-83
2023/03/12 03:35:26;;;;;;;13.70;6.50;;;-0.60;99.90;;;;;;6131632;23;20380;-83
2023/03/12 03:41:33;;;;;;;;;;;-1.40;99.90;;;;;;6158370;23;20017;-83
2023/03/12 03:44:06;;;;;;;15.80;7.00;;;0.20;99.90;;;;;;6134226;23;19999;-83
2023/03/12 03:46:58;;;;;;;15.68;6.90;;;-0.90;99.90;;;;;;6164708;23;20020;-83
2023/03/12 03:49:38;;;;;;;13.43;7.20;;;-2.10;99.90;;;;;;6148667;23;20021;-83
2023/03/12 04:09:12;;;;;;;14.03;7.37;;;-0.70;99.90;;;;;;6130066;23;20254;-83
2023/03/12 04:11:47;;;;;;;14.83;7.50;;;0.30;99.90;;;;;;6124778;23;20026;-82
2023/03/12 04:14:31;;;;;;;14.27;7.10;;;-0.10;99.90;;;;;;6108884;23;20020;-83
2023/03/12 04:16:57;;;;;;;14.65;7.47;;;-0.80;99.90;;;;;;6100060;23;20089;-83
2023/03/12 04:19:32;;;;;;;17.93;7.33;;;-0.60;99.90;;;;;;6100239;23;20477;-83
2023/03/12 04:22:10;;;;;;;15.43;7.47;;;-0.90;99.90;;;;;;6126673;23;20089;-83
2023/03/12 04:25:28;;;;;;;13.73;6.97;;;0.80;99.90;;;;;;6125571;23;20014;-83
2023/03/12 04:28:03;;;;;;;13.67;7.20;;;0.00;99.90;;;;;;6126978;23;20018;-83
2023/03/12 04:30:37;;;;;;;15.03;7.10;;;-0.50;99.90;;;;;;6124324;23;20808;-83
2023/03/12 04:33:08;;;;;;;14.75;7.05;;;0.30;99.90;;;;;;6100501;23;20017;-83
2023/03/12 04:35:50;;;;;;;14.50;7.83;;;0.80;99.90;;;;;;6126298;23;20018;-83
2023/03/12 04:38:16;;;;;;;19.03;7.87;;;-0.80;99.90;;;;;;6125706;23;20018;-83
2023/03/12 04:41:01;;;;;;;16.23;7.40;;;0.10;99.90;;;;;;6124140;23;20014;-83
2023/03/12 04:43:27;;;;;;;15.43;7.40;;;-0.50;99.90;;;;;;6123511;23;20451;-83
2023/03/12 04:45:53;;;;;;;14.83;7.43;;;-0.70;99.90;;;;;;6124041;23;20014;-83
2023/03/12 04:49:10;;;;;;;16.23;7.90;;;0.30;99.90;;;;;;6125969;23;20478;-84
2023/03/12 04:51:37;;;;;;;12.70;7.27;;;0.00;99.90;;;;;;6098353;23;20018;-83
2023/03/12 04:54:15;;;;;;;17.83;8.20;;;0.30;99.90;;;;;;6100415;23;20014;-84
2023/03/12 04:56:48;;;;;;;14.40;7.73;;;-0.90;99.90;;;;;;6125622;23;20029;-83
2023/03/12 04:59:17;;;;;;;15.33;7.57;;;1.00;99.90;;;;;;6099017;23;20510;-83
2023/03/12 05:01:52;;;;;;;18.13;7.63;;;-0.50;99.90;;;;;;6125763;23;20081;-83
2023/03/12 05:04:17;;;;;;;14.90;7.87;;;2.20;99.90;;;;;;6125456;23;20014;-83
2023/03/12 05:06:57;;;;;;;14.33;7.20;;;-0.50;99.90;;;;;;6124394;23;20525;-83
2023/03/12 05:09:23;;;;;;;14.17;7.63;;;0.30;99.90;;;;;;6148093;23;20053;-83
2023/03/12 05:11:54;;;;;;;14.30;7.20;;;-0.70;99.90;;;;;;6131059;23;20025;-83
2023/03/12 05:14:21;;;;;;;15.40;7.90;;;0.50;99.90;;;;;;6127366;23;20030;-83
2023/03/12 05:17:12;;;;;;;16.10;7.23;;;-0.60;99.90;;;;;;6144826;23;20049;-83
2023/03/12 05:19:40;;;;;;;15.33;6.93;;;-0.20;99.90;;;;;;6101290;23;20061;-83
2023/03/12 05:22:05;;;;;;;17.50;7.77;;;-0.60;99.90;;;;;;6100275;23;20439;-83
2023/03/12 05:24:31;;;;;;;13.87;7.23;;;-0.60;99.90;;;;;;6126129;23;20141;-83
2023/03/12 05:27:24;;;;;;;14.13;6.93;;;-0.60;99.90;;;;;;6096906;23;20013;-83
2023/03/12 05:29:56;;;;;;;13.37;7.23;;;0.30;99.90;;;;;;6101220;23;20018;-82
2023/03/12 05:32:28;;;;;;;15.67;7.70;;;1.30;99.90;;;;;;6123746;23;20026;-83
2023/03/12 05:35:03;;;;;;;13.43;6.73;;;-0.60;99.90;;;;;;6123544;23;20096;-83
2023/03/12 05:37:29;;;;;;;13.43;7.07;;;-1.50;99.90;;;;;;6124080;23;20018;-83
2023/03/12 05:40:09;;;;;;;13.73;6.87;;;-0.10;99.90;;;;;;6123494;23;20084;-83
2023/03/12 05:48:05;;;;;;;15.87;7.23;;;-0.10;99.90;;;;;;6183901;23;20064;-83
2023/03/12 05:50:31;;;;;;;15.17;7.20;;;-0.40;99.90;;;;;;6158858;23;20024;-83
2023/03/12 05:52:57;;;;;;;15.83;7.20;;;-0.10;99.90;;;;;;6159230;23;20026;-82
2023/03/12 05:55:22;;;;;;;14.60;7.10;;;-0.40;99.90;;;;;;6158386;23;20023;-82
2023/03/12 05:57:48;;;;;;;15.27;7.13;;;-0.40;99.90;;;;;;6186962;23;20083;-83
2023/03/12 06:00:14;;;;;;;15.93;7.63;;;-0.40;99.90;;;;;;6186805;23;20449;-82
2023/03/12 06:02:58;;;;;;;14.53;7.90;;;0.00;99.90;;;;;;6185556;23;20125;-83
2023/03/12 06:08:14;;;;;;;14.30;7.70;;;0.00;99.90;;;;;;6212140;23;20016;-82
2023/03/12 06:10:39;;;;;;;15.87;8.07;;;2.10;99.90;;;;;;6216019;23;20021;-83
2023/03/12 06:16:57;;;;;;;15.57;8.50;;;-0.30;99.90;;;;;;6215828;23;20020;-84
2023/03/12 06:19:38;;;;;;;15.07;8.30;;;0.00;99.90;;;;;;6189972;23;20072;-83
2023/03/12 06:22:04;;;;;;;14.30;8.53;;;1.50;99.90;;;;;;6189237;23;20017;-82
2023/03/12 06:24:46;;;;;;;15.50;8.37;;;0.10;99.90;;;;;;6189782;23;20079;-83
2023/03/12 06:27:16;;;;;;;15.40;8.20;;;0.00;99.90;;;;;;6216087;23;20063;-83
2023/03/12 06:29:42;;;;;;;14.43;8.53;;;0.70;99.90;;;;;;6188763;23;20013;-83
2023/03/12 06:32:08;;;;;;;15.87;8.70;;;0.70;99.90;;;;;;6217273;23;20074;-83
2023/03/12 06:34:34;;;;;;;14.23;7.97;;;0.20;99.90;;;;;;6189919;23;20020;-83
2023/03/12 06:37:12;;;;;;;12.90;7.60;;;1.60;99.90;;;;;;6189242;23;20021;-83
2023/03/12 06:39:51;;;;;;;13.50;8.10;;;-0.10;99.90;;;;;;6190634;23;20019;-83
2023/03/12 06:42:53;;;;;;;13.10;8.20;;;-0.60;99.90;;;;;;6168364;23;20016;-83
2023/03/12 06:45:31;;;;;;;15.32;8.23;;;-0.10;99.90;;;;;;6221589;23;20082;-83
2023/03/12 06:48:09;;;;;;;17.23;8.87;;;1.50;99.90;;;;;;6191743;23;20377;-83
2023/03/12 06:50:34;;;;;;;16.57;7.97;;;0.30;99.90;;;;;;6239757;23;20009;-83
2023/03/12 06:53:00;;;;;;;14.20;8.00;;;1.00;99.90;;;;;;6192634;23;20469;-84
2023/03/12 06:55:44;;;;;;;17.20;7.60;;;1.60;99.90;;;;;;6216819;23;20436;-84
2023/03/12 06:58:10;;;;;;;15.43;7.82;;;0.00;99.90;;;;;;6189169;23;20047;-83
2023/03/12 07:00:36;;;;;;;14.87;8.30;;;0.20;99.90;;;;;;6216716;23;20012;-83
2023/03/12 07:03:14;;;;;;;15.40;8.23;;;0.20;99.90;;;;;;6189571;23;20025;-85
2023/03/12 07:05:43;;;;;;;16.33;8.27;;;0.50;99.90;;;;;;6189501;23;20368;-83
2023/03/12 07:08:36;;;;;;;16.50;7.67;;;2.60;99.90;;;;;;6161632;23;20080;-87
2023/03/12 07:14:32;;;;;;;15.73;8.23;;;0.90;99.90;;;;;;6156490;23;20025;-88
2023/03/12 07:17:13;;;;;;;13.57;7.43;;;0.60;99.90;;;;;;6140633;23;20053;-88
2023/03/12 07:19:39;;;;;;;14.93;7.90;;;0.10;99.90;;;;;;6116150;23;20021;-87
2023/03/12 07:22:04;;;;;;;16.70;7.30;;;0.50;99.90;;;;;;6131711;23;20017;-88
2023/03/12 07:24:45;;;;;;;15.20;7.90;;;0.90;99.90;;;;;;6157214;23;20025;-88
2023/03/12 07:27:25;;;;;;;13.17;7.67;;;0.10;99.90;;;;;;6131168;23;20016;-88
2023/03/12 07:29:51;;;;;;;14.93;8.43;;;0.40;99.90;;;;;;6131509;23;20017;-89
2023/03/12 07:32:35;;;;;;;13.03;7.97;;;1.50;99.90;;;;;;6130350;23;20472;-86
2023/03/12 07:35:16;;;;;;;15.73;7.72;;;0.50;99.90;;;;;;6131236;23;20092;-87
2023/03/12 07:37:42;;;;;;;16.07;7.87;;;0.60;99.90;;;;;;6153231;23;20021;-89
2023/03/12 07:40:34;;;;;;;14.20;7.97;;;0.80;99.90;;;;;;6156103;23;20085;-85
2023/03/12 07:43:14;;;;;;;13.70;7.97;;;0.70;99.90;;;;;;6155999;23;20018;-87
2023/03/12 07:46:30;;;;;;;14.77;8.07;;;2.40;99.90;;;;;;6129814;23;20092;-87
2023/03/12 07:48:55;;;;;;;15.13;8.67;;;-0.20;99.90;;;;;;6129525;23;20485;-86
2023/03/12 07:51:21;;;;;;;14.63;8.57;;;0.30;99.90;;;;;;6130513;23;20022;-89
2023/03/12 07:53:47;;;;;;;17.90;8.90;;;1.00;99.90;;;;;;6155496;23;20013;-90
2023/03/12 07:56:22;;;;;;;15.80;8.63;;;0.80;99.90;;;;;;6156839;23;20092;-89
2023/03/12 07:59:00;;;;;;;17.13;8.80;;;-0.10;99.90;;;;;;6130735;23;20069;-90
2023/03/12 08:01:38;;;;;;;15.57;9.10;;;2.00;99.90;;;;;;6127406;23;20284;-91
2023/03/12 08:07:23;;;;;;;15.57;8.73;;;0.70;99.90;;;;;;6157219;23;20021;-92
2023/03/12 08:09:55;;;;;;;15.30;8.50;;;0.60;99.90;;;;;;6131355;23;20014;-91
2023/03/12 08:12:31;;;;;;;;;;;;;;;;;;;;;
2023/03/12 08:17:48;;;;;;;19.33;9.50;;;0.80;99.90;;;;;;6143102;23;20711;-91
2023/03/12 08:20:20;;;;;;;17.40;9.03;;;1.60;99.90;;;;;;6178894;23;20021;-87
2023/03/12 08:22:56;;;;;;;17.07;9.40;;;0.00;99.90;;;;;;6142385;23;20022;-94
2023/03/12 08:25:57;;;;;;;17.27;9.97;;;0.40;99.90;;;;;;6169758;23;20021;-92
2023/03/12 08:32:29;;;;;;;17.50;9.37;;;0.30;99.90;;;;;;6125055;23;20105;-93
2023/03/12 08:34:56;;;;;;;15.73;8.80;;;1.30;99.90;;;;;;6131177;23;20072;-92
2023/03/12 08:37:22;;;;;;;16.23;9.97;;;0.60;99.90;;;;;;6131031;23;20383;-91
2023/03/12 08:39:49;;;;;;;18.53;9.10;;;1.00;99.90;;;;;;6129880;23;20053;-92
2023/03/12 08:49:22;;;;;;;17.90;9.10;;;0.70;99.90;;;;;;6156467;23;20025;-90
2023/03/12 08:51:54;;;;;;;16.87;9.17;;;1.90;99.90;;;;;;6131344;23;20105;-90
2023/03/12 08:54:41;;;;;;;16.63;9.63;;;1.50;99.90;;;;;;6134187;23;20018;-91
2023/03/12 09:09:11;;;;;;;17.93;9.70;;;1.50;99.90;;;;;;6155647;23;20036;-91
2023/03/12 09:11:58;;;;;;;22.87;10.57;;;1.30;99.90;;;;;;6155506;23;20076;-92
2023/03/12 09:14:33;;;;;;;19.50;10.37;;;1.00;99.90;;;;;;6132221;23;20021;-91
2023/03/12 09:17:17;;;;;;;20.03;10.13;;;2.20;99.90;;;;;;6155999;23;20013;-91
2023/03/12 09:19:52;;;;;;;;;;;0.70;99.90;;;;;;6129717;23;20718;-92
2023/03/12 09:29:23;;;;;;;16.67;10.13;;;0.10;99.90;;;;;;6154491;23;20033;-89
2023/03/12 09:31:49;;;;;;;21.70;11.40;;;2.40;99.90;;;;;;6131070;23;20462;-88
2023/03/12 09:34:15;;;;;;;18.50;11.40;;;1.00;99.90;;;;;;6130701;23;20049;-88
2023/03/12 09:36:56;;;;;;;22.77;12.20;;;0.50;99.90;;;;;;6157235;23;20021;-89
2023/03/12 09:39:22;;;;;;;22.13;11.87;;;1.30;99.90;;;;;;6131743;23;20109;-89
2023/03/12 09:41:48;;;;;;;20.10;11.80;;;0.50;99.90;;;;;;6143359;23;20013;-89
2023/03/12 09:44:38;;;;;;;21.37;11.90;;;0.80;99.90;;;;;;6133848;23;20025;-89
2023/03/12 09:47:28;;;;;;;19.80;12.00;;;0.90;99.90;;;;;;6134880;23;20036;-89
2023/03/12 09:50:22;;;;;;;20.67;12.53;;;0.90;99.90;;;;;;6164667;23;20013;-90
2023/03/12 09:53:33;;;;;;;23.17;12.20;;;1.20;99.90;;;;;;6158248;23;20024;-89
2023/03/12 09:56:03;;;;;;;22.27;13.03;;;1.00;99.90;;;;;;6131805;23;20017;-88
2023/03/12 09:58:30;;;;;;;21.90;12.70;;;0.70;99.90;;;;;;6131880;23;20026;-90
2023/03/12 10:01:33;;;;;;;22.03;13.17;;;2.70;99.90;;;;;;6157362;23;20453;-88
2023/03/12 10:04:22;;;;;;;20.37;14.03;;;0.90;99.90;;;;;;6156018;23;20227;-88
2023/03/12 10:09:26;;;;;;;23.17;13.23;;;1.00;99.90;;;;;;6133371;23;20016;-91
2023/03/12 10:12:42;;;;;;;20.73;12.80;;;0.50;99.90;;;;;;6155586;23;20022;-91
2023/03/12 10:15:56;;;;;;;25.80;15.10;;;0.20;99.90;;;;;;6132173;23;20013;-92
2023/03/12 10:18:50;;;;;;;24.17;13.47;;;0.90;99.90;;;;;;6158968;23;20017;-91
2023/03/12 10:22:05;;;;;;;23.20;14.23;;;1.00;99.90;;;;;;6158539;23;20028;-90
2023/03/12 10:24:42;;;;;;;25.33;14.70;;;2.10;99.90;;;;;;6159412;23;20021;-92
2023/03/12 10:30:35;;;;;;;25.10;13.60;;;1.20;99.90;;;;;;6134624;23;20021;-93
2023/03/12 10:33:24;;;;;;;24.23;13.73;;;2.10;99.90;;;;;;6157350;23;20026;-93
2023/03/12 10:36:17;;;;;;;22.93;14.83;;;0.20;99.90;;;;;;6131951;23;20041;-92
2023/03/12 10:38:49;;;;;;;25.10;15.00;;;1.20;99.90;;;;;;6132400;23;20971;-92
2023/03/12 10:48:42;;;;;;;27.13;15.27;;;2.50;99.90;;;;;;6163732;23;20047;-93
2023/03/12 10:51:30;;;;;;;29.90;15.70;;;2.30;99.90;;;;;;6134673;23;20014;-92
2023/03/12 11:10:42;;;;;;;28.30;15.97;;;1.10;99.90;;;;;;6022352;23;20047;-92
2023/03/12 11:13:40;;;;;;;25.13;15.18;;;1.00;99.90;;;;;;6048569;23;20030;-91
2023/03/12 11:16:37;;;;;;;27.90;15.40;;;2.70;99.90;;;;;;6164038;23;20025;-93
2023/03/12 11:19:39;;;;;;;27.73;16.10;;;2.70;99.90;;;;;;6147162;23;20083;-92
2023/03/12 11:23:17;;;;;;;27.83;16.03;;;1.90;99.90;;;;;;6157840;23;20065;-89
2023/03/12 11:26:19;;;;;;;29.37;16.73;;;2.20;99.90;;;;;;6159729;23;20041;-93
2023/03/12 11:29:05;;;;;;;30.20;16.03;;;1.50;99.90;;;;;;6067514;23;20455;-94
2023/03/12 11:59:37;;;;;;;34.03;19.00;;;2.40;99.90;;;;;;6039983;23;20019;-90
2023/03/12 12:21:23;;;;;;;;;;;;;;;;;;;;;
2023/03/12 12:24:48;;;;;;;33.83;18.50;;;3.60;99.90;;;;;;6000659;23;20091;-91
2023/03/12 12:28:09;;;;;;;33.07;17.70;;;4.20;99.90;;;;;;6040970;23;20352;-90
2023/03/12 12:31:30;;;;;;;27.90;14.93;;;5.20;99.90;;;;;;6018759;23;20340;-90
2023/03/12 12:34:37;;;;;;;35.13;18.60;;;4.20;99.90;;;;;;6081658;23;20043;-90
2023/03/12 12:37:36;;;;;;;38.03;17.60;;;4.10;99.90;;;;;;6020799;23;20343;-89
2023/03/12 12:40:28;;;;;;;41.93;19.10;;;4.50;99.90;;;;;;6074403;23;20440;-91
2023/03/12 12:43:26;;;;;;;33.07;16.43;;;5.20;99.90;;;;;;6028389;23;20027;-90
2023/03/12 12:49:01;;;;;;;37.57;17.47;;;4.50;99.90;;;;;;6123310;23;20415;-90
2023/03/12 12:51:43;;;;;;;37.87;19.73;;;4.80;99.90;;;;;;6129896;23;20101;-89
2023/03/12 12:54:27;;;;;;;37.37;19.00;;;4.90;99.90;;;;;;6130388;23;20080;-90
2023/03/12 12:57:07;;;;;;;35.22;18.20;;;4.90;99.90;;;;;;6150815;23;20025;-90
2023/03/12 13:06:38;;;;;;;38.07;17.87;;;5.40;99.90;;;;;;6213544;23;20028;-89
2023/03/12 13:12:31;;;;;;;36.47;17.40;;;6.30;99.90;;;;;;6079193;23;20065;-90
2023/03/12 13:14:58;;;;;;;41.83;19.30;;;5.70;99.90;;;;;;6100155;23;20093;-91
2023/03/12 13:18:05;;;;;;;42.70;18.30;;;4.70;99.90;;;;;;6125380;23;20024;-90
2023/03/12 13:20:56;;;;;;;46.57;20.23;;;5.20;99.90;;;;;;6065856;23;20046;-90
2023/03/12 13:23:50;;;;;;;47.90;20.27;;;5.90;99.90;;;;;;6126445;23;20026;-90
2023/03/12 13:26:19;;;;;;;44.30;20.40;;;5.10;99.90;;;;;;6125548;23;20065;-91
2023/03/12 13:28:56;;;;;;;42.37;18.40;;;7.40;99.90;;;;;;6126302;23;20044;-90
2023/03/12 13:31:57;;;;;;;46.27;18.20;;;7.50;99.90;;;;;;6097730;23;20053;-88
2023/03/12 13:35:15;;;;;;;44.23;19.73;;;8.20;99.90;;;;;;6064194;23;20368;-89
2023/03/12 13:37:56;;;;;;;50.07;21.13;;;5.60;99.90;;;;;;5983865;23;20051;-88
2023/03/12 13:41:15;;;;;;;52.73;21.43;;;7.80;99.90;;;;;;6039264;23;20066;-94
2023/03/12 13:43:56;;;;;;;52.83;22.33;;;6.30;99.90;;;;;;6124995;23;20342;-93
2023/03/12 13:46:41;;;;;;;48.50;21.03;;;6.30;99.90;;;;;;6126269;23;20462;-90
2023/03/12 13:52:23;;;;;;;49.53;20.37;;;6.60;99.90;;;;;;6100534;23;20018;-92
2023/03/12 13:58:08;;;;;;;52.93;20.97;;;6.70;99.90;;;;;;6213946;23;20024;-91
2023/03/12 14:00:47;;;;;;;53.40;21.53;;;6.80;99.90;;;;;;6227821;23;20279;-92
2023/03/12 14:04:15;;;;;;;42.73;19.60;;;6.80;99.90;;;;;;6190041;23;20017;-92
2023/03/12 14:10:45;;;;;;;48.83;20.43;;;6.20;99.90;;;;;;6095362;23;20025;-92
2023/03/12 14:13:47;;;;;;;46.10;18.40;;;7.10;99.90;;;;;;6099049;23;20024;-90
2023/03/12 14:19:26;;;;;;;45.80;17.47;;;6.40;99.90;;;;;;6130729;23;20439;-92
2023/03/12 14:33:28;;;;;;;45.47;17.83;;;8.10;99.90;;;;;;6112367;23;20018;-91
2023/03/12 14:36:36;;;;;;;44.93;16.33;;;9.50;99.90;;;;;;6127510;23;20083;-93
2023/03/12 15:00:53;;;;;;;38.93;13.50;;;8.00;99.90;;;;;;6123053;23;20025;-92
2023/03/12 15:03:41;;;;;;;42.37;14.67;;;8.20;99.90;;;;;;6120143;23;20015;-93
2023/03/12 15:07:09;;;;;;;34.80;13.63;;;8.00;99.90;;;;;;6100557;23;20078;-92
2023/03/12 15:13:05;;;;;;;39.53;14.47;;;8.00;99.90;;;;;;6127114;23;20105;-93
2023/03/12 15:18:34;;;;;;;39.50;13.57;;;8.00;99.90;;;;;;6151293;23;20025;-94
2023/03/12 15:21:02;;;;;;;31.90;11.90;;;8.20;99.90;;;;;;6156618;23;20468;-94
2023/03/12 15:23:53;;;;;;;37.60;12.60;;;8.10;99.90;;;;;;6130974;23;20021;-93
2023/03/12 15:26:18;;;;;;;37.77;11.60;;;8.50;99.90;;;;;;6136993;23;20458;-93
2023/03/12 15:29:04;;;;;;;35.53;12.20;;;9.80;99.90;;;;;;6137195;23;20040;-93
2023/03/12 15:31:58;;;;;;;40.60;11.57;;;8.10;99.90;;;;;;6130484;23;20017;-93
2023/03/12 15:34:32;;;;;;;40.50;12.07;;;7.50;99.90;;;;;;6169924;23;20045;-92
2023/03/12 15:52:33;;;;;;;43.00;9.73;;;8.10;99.90;;;;;;6148939;23;20025;-94
2023/03/12 15:55:22;;;;;;;37.23;10.07;;;8.20;99.90;;;;;;6148096;23;20041;-93
2023/03/12 15:58:35;;;;;;;30.97;8.50;;;8.30;99.90;;;;;;6133095;23;20088;-94
2023/03/12 16:08:34;;;;;;;39.37;8.97;;;7.60;99.90;;;;;;6135046;23;20021;-92
2023/03/12 16:14:29;;;;;;;32.07;7.13;;;7.70;99.90;;;;;;6124208;23;20029;-91
2023/03/12 16:19:33;;;;;;;30.40;6.67;;;8.40;99.90;;;;;;6126316;23;20036;-91
2023/03/12 16:24:39;;;;;;;33.50;7.57;;;8.40;99.90;;;;;;6156653;23;20323;-91
2023/03/12 16:27:55;;;;;;;35.33;7.17;;;9.80;99.90;;;;;;6135991;23;20021;-94
2023/03/12 16:30:52;;;;;;;28.53;7.03;;;7.90;99.90;;;;;;6080619;23;20108;-90
2023/03/12 16:33:23;;;;;;;38.20;9.20;;;8.30;99.90;;;;;;6081985;23;20023;-91
2023/03/12 16:35:49;;;;;;;30.37;6.97;;;9.40;99.90;;;;;;6088039;23;20018;-89
2023/03/12 16:38:40;;;;;;;35.13;7.03;;;9.20;99.90;;;;;;6133558;23;20018;-89
2023/03/12 16:41:25;;;;;;;25.47;5.80;;;8.30;99.90;;;;;;6154745;23;20025;-91
2023/03/12 16:43:52;;;;;;;;;;;9.40;99.90;;;;;;6131760;23;20029;-90
2023/03/12 16:46:21;;;;;;;31.13;7.67;;;8.20;99.90;;;;;;6131912;23;19923;-92
2023/03/12 16:51:16;;;;;;;31.80;7.57;;;8.30;99.90;;;;;;6125639;23;20022;-95
2023/03/12 16:53:42;;;;;;;34.40;6.73;;;8.30;99.90;;;;;;6128672;23;20033;-92
2023/03/12 16:56:17;;;;;;;28.60;6.27;;;8.30;99.90;;;;;;6103947;23;20529;-89
2023/03/12 16:58:43;;;;;;;32.90;6.13;;;9.70;99.90;;;;;;6103191;23;20026;-89
2023/03/12 17:01:30;;;;;;;30.10;7.07;;;9.20;99.90;;;;;;6109904;23;20034;-93
2023/03/12 17:04:15;;;;;;;31.67;7.83;;;7.50;99.90;;;;;;6108594;23;20026;-93
2023/03/12 17:21:48;;;;;;;;;;;;;;;;;;;;;
2023/03/12 17:54:27;;;;;;;30.93;6.60;;;8.00;99.90;;;;;;6163299;23;20056;-86
2023/03/12 17:57:29;;;;;;;25.83;4.78;;;8.00;99.90;;;;;;6036803;23;20038;-87
2023/03/12 18:42:59;;;;;;;25.63;5.77;;;8.50;99.90;;;;;;6125936;23;20056;-89
2023/03/12 18:45:42;;;;;;;26.20;5.33;;;7.80;99.90;;;;;;6126947;23;20026;-84
2023/03/12 18:48:08;;;;;;;25.23;5.03;;;9.10;99.90;;;;;;6100098;23;20049;-83
2023/03/12 18:50:46;;;;;;;26.87;5.60;;;8.40;99.90;;;;;;6125919;23;20013;-83
2023/03/12 18:53:12;;;;;;;24.50;5.57;;;7.10;99.90;;;;;;6126955;23;20018;-83
2023/03/12 18:55:38;;;;;;;24.70;5.33;;;8.00;99.90;;;;;;6125159;23;20089;-84
2023/03/12 18:58:26;;;;;;;30.60;5.60;;;7.60;99.90;;;;;;6100920;23;20022;-83
2023/03/12 19:04:14;;;;;;;32.57;5.77;;;7.70;99.90;;;;;;6154855;23;20021;-82
2023/03/12 19:06:49;;;;;;;27.30;5.40;;;7.80;99.90;;;;;;6155504;23;20022;-83
2023/03/12 19:09:14;;;;;;;27.07;6.43;;;7.40;99.90;;;;;;6128380;23;20458;-83
2023/03/12 19:11:55;;;;;;;28.73;5.13;;;8.50;99.90;;;;;;6155397;23;20014;-84
2023/03/12 19:14:28;;;;;;;28.80;5.50;;;8.70;99.90;;;;;;6156018;23;20037;-83
2023/03/12 19:16:56;;;;;;;28.13;5.43;;;7.80;99.90;;;;;;6128932;23;20067;-84
2023/03/12 19:19:37;;;;;;;26.67;5.60;;;7.90;99.90;;;;;;6146695;23;20028;-84
2023/03/12 19:22:03;;;;;;;29.00;5.77;;;8.00;99.90;;;;;;6158942;23;20017;-84
2023/03/12 19:24:29;;;;;;;27.93;6.50;;;6.70;99.90;;;;;;6184652;23;20021;-84
2023/03/12 19:27:13;;;;;;;26.27;5.50;;;8.10;99.90;;;;;;6158898;23;20013;-84
2023/03/12 19:29:39;;;;;;;28.10;5.50;;;7.30;99.90;;;;;;6158490;23;20028;-84
2023/03/12 19:32:05;;;;;;;25.37;5.20;;;9.30;99.90;;;;;;6185030;23;20009;-84
2023/03/12 19:34:30;;;;;;;34.40;5.77;;;7.80;99.90;;;;;;6184683;23;20507;-84
2023/03/12 19:37:08;;;;;;;27.37;4.83;;;7.30;99.90;;;;;;6158304;23;20043;-84
2023/03/12 19:39:34;;;;;;;31.20;6.40;;;8.70;99.90;;;;;;6158353;23;20017;-83
2023/03/12 19:42:18;;;;;;;26.40;5.93;;;8.40;99.90;;;;;;6159160;23;20062;-84
2023/03/12 19:44:43;;;;;;;27.05;6.35;;;9.20;99.90;;;;;;6184414;23;20025;-84
2023/03/12 19:47:22;;;;;;;24.70;5.10;;;9.50;99.90;;;;;;6159604;23;20017;-84